sensor_id;sensor_type;location;lat;lon;timestamp;P1;durP1;ratioP1;P2;durP2;ratioP2
11263;SDS011;5689;48.798;9.070;2023-04-15T00:01:58;0.70;;;0.70;;
11263;SDS011;5689;48.798;9.070;2023-04-15T00:04:26;0.70;;;0.70;;
11263;SDS011;5689;48.798;9.070;2023-04-15T00:06:54;0.70;;;0.70;;
11263;SDS011;5689;48.798;9.070;2023-04-15T00:09:22;0.70;;;0.70;;
11263;SDS011;5689;48.798;9.070;2023-04-15T00:11:52;0.80;;;0.80;;
11263;SDS011;5689;48.798;9.070;2023-04-15T00:14:20;0.63;;;0.63;;
11263;SDS011;5689;48.798;9.070;2023-04-15T00:16:48;0.70;;;0.70;;
11263;SDS011;5689;48.798;9.070;2023-04-15T00:19:21;0.70;;;0.70;;
11263;SDS011;5689;48.798;9.070;2023-04-15T00:21:49;0.80;;;0.80;;
11263;SDS011;5689;48.798;9.070;2023-04-15T00:24:17;0.80;;;0.80;;
11263;SDS011;5689;48.798;9.070;2023-04-15T00:26:45;0.70;;;0.70;;
11263;SDS011;5689;48.798;9.070;2023-04-15T00:29:15;0.60;;;0.60;;
11263;SDS011;5689;48.798;9.070;2023-04-15T00:31:44;0.60;;;0.60;;
11263;SDS011;5689;48.798;9.070;2023-04-15T00:34:12;0.70;;;0.70;;
11263;SDS011;5689;48.798;9.070;2023-04-15T00:36:41;0.70;;;0.70;;
11263;SDS011;5689;48.798;9.070;2023-04-15T00:39:10;0.70;;;0.70;;
11263;SDS011;5689;48.798;9.070;2023-04-15T00:41:41;0.60;;;0.60;;
11263;SDS011;5689;48.798;9.070;2023-04-15T00:44:10;0.60;;;0.60;;
11263;SDS011;5689;48.798;9.070;2023-04-15T00:46:40;0.77;;;0.77;;
11263;SDS011;5689;48.798;9.070;2023-04-15T00:49:10;0.70;;;0.70;;
11263;SDS011;5689;48.798;9.070;2023-04-15T00:51:39;0.70;;;0.70;;
11263;SDS011;5689;48.798;9.070;2023-04-15T00:54:07;0.77;;;0.77;;
11263;SDS011;5689;48.798;9.070;2023-04-15T00:56:36;0.80;;;0.80;;
11263;SDS011;5689;48.798;9.070;2023-04-15T00:59:05;0.90;;;0.90;;
11263;SDS011;5689;48.798;9.070;2023-04-15T01:01:34;0.70;;;0.70;;
11263;SDS011;5689;48.798;9.070;2023-04-15T01:04:05;0.80;;;0.80;;
11263;SDS011;5689;48.798;9.070;2023-04-15T01:06:35;0.60;;;0.60;;
11263;SDS011;5689;48.798;9.070;2023-04-15T01:09:03;0.60;;;0.60;;
11263;SDS011;5689;48.798;9.070;2023-04-15T01:11:31;0.70;;;0.70;;
11263;SDS011;5689;48.798;9.070;2023-04-15T01:14:00;0.80;;;0.80;;
11263;SDS011;5689;48.798;9.070;2023-04-15T01:16:29;0.70;;;0.70;;
11263;SDS011;5689;48.798;9.070;2023-04-15T01:18:58;0.83;;;0.83;;
11263;SDS011;5689;48.798;9.070;2023-04-15T01:21:28;0.80;;;0.80;;
11263;SDS011;5689;48.798;9.070;2023-04-15T01:23:56;0.70;;;0.70;;
11263;SDS011;5689;48.798;9.070;2023-04-15T01:26:26;0.80;;;0.80;;
11263;SDS011;5689;48.798;9.070;2023-04-15T01:28:56;0.70;;;0.70;;
11263;SDS011;5689;48.798;9.070;2023-04-15T01:31:24;0.87;;;0.87;;
11263;SDS011;5689;48.798;9.070;2023-04-15T01:33:52;0.70;;;0.70;;
11263;SDS011;5689;48.798;9.070;2023-04-15T01:36:20;0.80;;;0.80;;
11263;SDS011;5689;48.798;9.070;2023-04-15T01:38:51;0.80;;;0.80;;
11263;SDS011;5689;48.798;9.070;2023-04-15T01:41:21;0.70;;;0.70;;
11263;SDS011;5689;48.798;9.070;2023-04-15T01:43:52;0.83;;;0.83;;
11263;SDS011;5689;48.798;9.070;2023-04-15T01:46:21;0.80;;;0.80;;
11263;SDS011;5689;48.798;9.070;2023-04-15T01:48:49;0.77;;;0.77;;
11263;SDS011;5689;48.798;9.070;2023-04-15T01:51:18;0.67;;;0.67;;
11263;SDS011;5689;48.798;9.070;2023-04-15T01:53:48;0.90;;;0.90;;
11263;SDS011;5689;48.798;9.070;2023-04-15T01:56:16;0.70;;;0.70;;
11263;SDS011;5689;48.798;9.070;2023-04-15T01:58:44;0.80;;;0.80;;
11263;SDS011;5689;48.798;9.070;2023-04-15T02:01:14;0.60;;;0.60;;
11263;SDS011;5689;48.798;9.070;2023-04-15T02:03:45;0.70;;;0.70;;
11263;SDS011;5689;48.798;9.070;2023-04-15T02:06:14;0.70;;;0.70;;
11263;SDS011;5689;48.798;9.070;2023-04-15T02:08:42;0.70;;;0.70;;
11263;SDS011;5689;48.798;9.070;2023-04-15T02:11:10;0.80;;;0.80;;
11263;SDS011;5689;48.798;9.070;2023-04-15T02:13:38;0.70;;;0.70;;
11263;SDS011;5689;48.798;9.070;2023-04-15T02:16:15;0.70;;;0.70;;
11263;SDS011;5689;48.798;9.070;2023-04-15T02:18:45;0.80;;;0.80;;
11263;SDS011;5689;48.798;9.070;2023-04-15T02:21:13;0.90;;;0.90;;
11263;SDS011;5689;48.798;9.070;2023-04-15T02:23:41;0.83;;;0.83;;
11263;SDS011;5689;48.798;9.070;2023-04-15T02:26:11;0.80;;;0.80;;
11263;SDS011;5689;48.798;9.070;2023-04-15T02:28:40;0.90;;;0.90;;
11263;SDS011;5689;48.798;9.070;2023-04-15T02:31:08;0.80;;;0.80;;
11263;SDS011;5689;48.798;9.070;2023-04-15T02:33:37;0.90;;;0.90;;
11263;SDS011;5689;48.798;9.070;2023-04-15T02:36:06;1.00;;;1.00;;
11263;SDS011;5689;48.798;9.070;2023-04-15T02:38:35;0.90;;;0.90;;
11263;SDS011;5689;48.798;9.070;2023-04-15T02:41:03;0.90;;;0.90;;
11263;SDS011;5689;48.798;9.070;2023-04-15T02:43:32;0.70;;;0.70;;
11263;SDS011;5689;48.798;9.070;2023-04-15T02:46:00;0.90;;;0.90;;
11263;SDS011;5689;48.798;9.070;2023-04-15T02:48:28;0.90;;;0.90;;
11263;SDS011;5689;48.798;9.070;2023-04-15T02:51:11;0.80;;;0.80;;
11263;SDS011;5689;48.798;9.070;2023-04-15T02:53:39;0.70;;;0.70;;
11263;SDS011;5689;48.798;9.070;2023-04-15T02:56:07;0.80;;;0.80;;
11263;SDS011;5689;48.798;9.070;2023-04-15T02:58:37;0.80;;;0.80;;
11263;SDS011;5689;48.798;9.070;2023-04-15T03:01:06;0.83;;;0.83;;
11263;SDS011;5689;48.798;9.070;2023-04-15T03:03:35;1.00;;;1.00;;
11263;SDS011;5689;48.798;9.070;2023-04-15T03:06:03;0.90;;;0.90;;
11263;SDS011;5689;48.798;9.070;2023-04-15T03:08:33;0.90;;;0.90;;
11263;SDS011;5689;48.798;9.070;2023-04-15T03:11:02;0.87;;;0.87;;
11263;SDS011;5689;48.798;9.070;2023-04-15T03:13:32;0.87;;;0.87;;
11263;SDS011;5689;48.798;9.070;2023-04-15T03:16:08;0.70;;;0.70;;
11263;SDS011;5689;48.798;9.070;2023-04-15T03:18:36;0.70;;;0.70;;
11263;SDS011;5689;48.798;9.070;2023-04-15T03:21:05;1.00;;;1.00;;
11263;SDS011;5689;48.798;9.070;2023-04-15T03:23:37;0.90;;;0.90;;
11263;SDS011;5689;48.798;9.070;2023-04-15T03:26:05;0.90;;;0.90;;
11263;SDS011;5689;48.798;9.070;2023-04-15T03:28:34;0.90;;;0.90;;
11263;SDS011;5689;48.798;9.070;2023-04-15T03:31:03;0.90;;;0.90;;
11263;SDS011;5689;48.798;9.070;2023-04-15T03:33:31;0.80;;;0.80;;
11263;SDS011;5689;48.798;9.070;2023-04-15T03:35:59;1.00;;;1.00;;
11263;SDS011;5689;48.798;9.070;2023-04-15T03:38:27;0.90;;;0.90;;
11263;SDS011;5689;48.798;9.070;2023-04-15T03:40:56;0.90;;;0.90;;
11263;SDS011;5689;48.798;9.070;2023-04-15T03:43:24;0.90;;;0.90;;
11263;SDS011;5689;48.798;9.070;2023-04-15T03:45:53;0.80;;;0.80;;
11263;SDS011;5689;48.798;9.070;2023-04-15T03:48:21;0.80;;;0.80;;
11263;SDS011;5689;48.798;9.070;2023-04-15T03:50:49;0.90;;;0.90;;
11263;SDS011;5689;48.798;9.070;2023-04-15T03:53:17;0.77;;;0.77;;
11263;SDS011;5689;48.798;9.070;2023-04-15T03:55:45;0.90;;;0.90;;
11263;SDS011;5689;48.798;9.070;2023-04-15T03:58:15;0.80;;;0.80;;
11263;SDS011;5689;48.798;9.070;2023-04-15T04:00:43;1.00;;;1.00;;
11263;SDS011;5689;48.798;9.070;2023-04-15T04:03:11;0.90;;;0.90;;
11263;SDS011;5689;48.798;9.070;2023-04-15T04:05:39;0.77;;;0.77;;
11263;SDS011;5689;48.798;9.070;2023-04-15T04:08:07;0.90;;;0.90;;
11263;SDS011;5689;48.798;9.070;2023-04-15T04:10:39;0.80;;;0.80;;
11263;SDS011;5689;48.798;9.070;2023-04-15T04:13:07;0.87;;;0.87;;
11263;SDS011;5689;48.798;9.070;2023-04-15T04:15:36;0.70;;;0.70;;
11263;SDS011;5689;48.798;9.070;2023-04-15T04:18:05;0.80;;;0.80;;
11263;SDS011;5689;48.798;9.070;2023-04-15T04:20:33;1.00;;;1.00;;
11263;SDS011;5689;48.798;9.070;2023-04-15T04:23:01;1.00;;;1.00;;
11263;SDS011;5689;48.798;9.070;2023-04-15T04:25:29;0.90;;;0.90;;
11263;SDS011;5689;48.798;9.070;2023-04-15T04:27:58;0.90;;;0.90;;
11263;SDS011;5689;48.798;9.070;2023-04-15T04:30:26;0.80;;;0.80;;
11263;SDS011;5689;48.798;9.070;2023-04-15T04:32:55;0.70;;;0.70;;
11263;SDS011;5689;48.798;9.070;2023-04-15T04:35:24;0.80;;;0.80;;
11263;SDS011;5689;48.798;9.070;2023-04-15T04:37:52;0.80;;;0.80;;
11263;SDS011;5689;48.798;9.070;2023-04-15T04:40:20;1.00;;;1.00;;
11263;SDS011;5689;48.798;9.070;2023-04-15T04:42:48;0.80;;;0.80;;
11263;SDS011;5689;48.798;9.070;2023-04-15T04:45:17;0.90;;;0.90;;
11263;SDS011;5689;48.798;9.070;2023-04-15T04:47:45;0.80;;;0.80;;
11263;SDS011;5689;48.798;9.070;2023-04-15T04:50:15;0.80;;;0.80;;
11263;SDS011;5689;48.798;9.070;2023-04-15T04:52:43;0.80;;;0.80;;
11263;SDS011;5689;48.798;9.070;2023-04-15T04:55:11;0.80;;;0.80;;
11263;SDS011;5689;48.798;9.070;2023-04-15T04:57:39;0.93;;;0.93;;
11263;SDS011;5689;48.798;9.070;2023-04-15T05:00:08;0.97;;;0.97;;
11263;SDS011;5689;48.798;9.070;2023-04-15T05:02:37;0.83;;;0.83;;
11263;SDS011;5689;48.798;9.070;2023-04-15T05:05:07;0.80;;;0.80;;
11263;SDS011;5689;48.798;9.070;2023-04-15T05:07:37;0.80;;;0.80;;
11263;SDS011;5689;48.798;9.070;2023-04-15T05:10:06;0.80;;;0.80;;
11263;SDS011;5689;48.798;9.070;2023-04-15T05:12:35;1.10;;;1.10;;
11263;SDS011;5689;48.798;9.070;2023-04-15T05:15:04;0.80;;;0.80;;
11263;SDS011;5689;48.798;9.070;2023-04-15T05:17:33;0.90;;;0.90;;
11263;SDS011;5689;48.798;9.070;2023-04-15T05:20:01;0.80;;;0.80;;
11263;SDS011;5689;48.798;9.070;2023-04-15T05:22:30;0.90;;;0.90;;
11263;SDS011;5689;48.798;9.070;2023-04-15T05:24:59;0.80;;;0.80;;
11263;SDS011;5689;48.798;9.070;2023-04-15T05:27:27;0.80;;;0.80;;
11263;SDS011;5689;48.798;9.070;2023-04-15T05:29:56;0.70;;;0.70;;
11263;SDS011;5689;48.798;9.070;2023-04-15T05:32:24;0.80;;;0.80;;
11263;SDS011;5689;48.798;9.070;2023-04-15T05:34:52;0.83;;;0.83;;
11263;SDS011;5689;48.798;9.070;2023-04-15T05:37:21;0.90;;;0.90;;
11263;SDS011;5689;48.798;9.070;2023-04-15T05:39:49;0.90;;;0.90;;
11263;SDS011;5689;48.798;9.070;2023-04-15T05:42:18;1.00;;;1.00;;
11263;SDS011;5689;48.798;9.070;2023-04-15T05:44:47;0.70;;;0.70;;
11263;SDS011;5689;48.798;9.070;2023-04-15T05:47:15;0.90;;;0.90;;
11263;SDS011;5689;48.798;9.070;2023-04-15T05:49:44;0.80;;;0.80;;
11263;SDS011;5689;48.798;9.070;2023-04-15T05:52:12;0.90;;;0.90;;
11263;SDS011;5689;48.798;9.070;2023-04-15T05:54:40;0.80;;;0.80;;
11263;SDS011;5689;48.798;9.070;2023-04-15T05:57:08;0.70;;;0.70;;
11263;SDS011;5689;48.798;9.070;2023-04-15T05:59:37;0.80;;;0.80;;
11263;SDS011;5689;48.798;9.070;2023-04-15T06:02:08;0.70;;;0.70;;
11263;SDS011;5689;48.798;9.070;2023-04-15T06:04:37;0.60;;;0.60;;
11263;SDS011;5689;48.798;9.070;2023-04-15T06:07:05;0.60;;;0.60;;
11263;SDS011;5689;48.798;9.070;2023-04-15T06:09:33;0.60;;;0.60;;
11263;SDS011;5689;48.798;9.070;2023-04-15T06:12:01;0.60;;;0.60;;
11263;SDS011;5689;48.798;9.070;2023-04-15T06:14:29;0.70;;;0.70;;
11263;SDS011;5689;48.798;9.070;2023-04-15T06:16:59;0.60;;;0.60;;
11263;SDS011;5689;48.798;9.070;2023-04-15T06:19:27;0.57;;;0.57;;
11263;SDS011;5689;48.798;9.070;2023-04-15T06:21:56;0.50;;;0.50;;
11263;SDS011;5689;48.798;9.070;2023-04-15T06:24:25;0.60;;;0.60;;
11263;SDS011;5689;48.798;9.070;2023-04-15T06:26:53;0.60;;;0.60;;
11263;SDS011;5689;48.798;9.070;2023-04-15T06:29:24;0.50;;;0.50;;
11263;SDS011;5689;48.798;9.070;2023-04-15T06:31:52;0.60;;;0.60;;
11263;SDS011;5689;48.798;9.070;2023-04-15T06:34:23;0.40;;;0.40;;
11263;SDS011;5689;48.798;9.070;2023-04-15T06:36:51;0.40;;;0.40;;
11263;SDS011;5689;48.798;9.070;2023-04-15T06:39:20;0.33;;;0.33;;
11263;SDS011;5689;48.798;9.070;2023-04-15T06:41:50;0.30;;;0.30;;
11263;SDS011;5689;48.798;9.070;2023-04-15T06:44:20;0.30;;;0.30;;
11263;SDS011;5689;48.798;9.070;2023-04-15T06:46:49;0.30;;;0.30;;
11263;SDS011;5689;48.798;9.070;2023-04-15T06:49:16;0.30;;;0.30;;
11263;SDS011;5689;48.798;9.070;2023-04-15T06:51:46;0.30;;;0.30;;
11263;SDS011;5689;48.798;9.070;2023-04-15T06:54:18;0.30;;;0.30;;
11263;SDS011;5689;48.798;9.070;2023-04-15T06:57:24;0.30;;;0.30;;
11263;SDS011;5689;48.798;9.070;2023-04-15T06:59:54;0.30;;;0.30;;
11263;SDS011;5689;48.798;9.070;2023-04-15T07:02:24;0.20;;;0.20;;
11263;SDS011;5689;48.798;9.070;2023-04-15T07:04:52;0.17;;;0.17;;
11263;SDS011;5689;48.798;9.070;2023-04-15T07:07:22;0.30;;;0.30;;
11263;SDS011;5689;48.798;9.070;2023-04-15T07:09:50;0.20;;;0.20;;
11263;SDS011;5689;48.798;9.070;2023-04-15T07:12:19;0.20;;;0.20;;
11263;SDS011;5689;48.798;9.070;2023-04-15T07:14:47;0.20;;;0.20;;
11263;SDS011;5689;48.798;9.070;2023-04-15T07:17:15;0.20;;;0.20;;
11263;SDS011;5689;48.798;9.070;2023-04-15T07:19:43;0.20;;;0.20;;
11263;SDS011;5689;48.798;9.070;2023-04-15T07:22:11;0.20;;;0.20;;
11263;SDS011;5689;48.798;9.070;2023-04-15T07:24:41;0.20;;;0.20;;
11263;SDS011;5689;48.798;9.070;2023-04-15T07:27:09;0.10;;;0.10;;
11263;SDS011;5689;48.798;9.070;2023-04-15T07:29:37;0.10;;;0.10;;
11263;SDS011;5689;48.798;9.070;2023-04-15T07:32:05;0.20;;;0.20;;
11263;SDS011;5689;48.798;9.070;2023-04-15T07:34:33;0.20;;;0.20;;
11263;SDS011;5689;48.798;9.070;2023-04-15T07:37:01;0.10;;;0.10;;
11263;SDS011;5689;48.798;9.070;2023-04-15T07:39:30;0.10;;;0.10;;
11263;SDS011;5689;48.798;9.070;2023-04-15T07:41:59;0.15;;;0.15;;
11263;SDS011;5689;48.798;9.070;2023-04-15T07:44:27;0.20;;;0.20;;
11263;SDS011;5689;48.798;9.070;2023-04-15T07:46:56;0.10;;;0.10;;
11263;SDS011;5689;48.798;9.070;2023-04-15T07:49:24;0.15;;;0.15;;
11263;SDS011;5689;48.798;9.070;2023-04-15T07:51:52;0.10;;;0.10;;
11263;SDS011;5689;48.798;9.070;2023-04-15T07:54:20;0.15;;;0.15;;
11263;SDS011;5689;48.798;9.070;2023-04-15T07:56:48;0.10;;;0.10;;
11263;SDS011;5689;48.798;9.070;2023-04-15T07:59:17;0.10;;;0.10;;
11263;SDS011;5689;48.798;9.070;2023-04-15T08:01:45;0.10;;;0.10;;
11263;SDS011;5689;48.798;9.070;2023-04-15T08:04:13;0.10;;;0.10;;
11263;SDS011;5689;48.798;9.070;2023-04-15T08:06:41;0.10;;;0.10;;
11263;SDS011;5689;48.798;9.070;2023-04-15T08:09:09;0.13;;;0.13;;
11263;SDS011;5689;48.798;9.070;2023-04-15T08:11:38;0.30;;;0.30;;
11263;SDS011;5689;48.798;9.070;2023-04-15T08:14:07;0.20;;;0.20;;
11263;SDS011;5689;48.798;9.070;2023-04-15T08:16:36;0.30;;;0.30;;
11263;SDS011;5689;48.798;9.070;2023-04-15T08:19:05;0.10;;;0.10;;
11263;SDS011;5689;48.798;9.070;2023-04-15T08:21:33;0.20;;;0.20;;
11263;SDS011;5689;48.798;9.070;2023-04-15T08:24:01;0.10;;;0.10;;
11263;SDS011;5689;48.798;9.070;2023-04-15T08:26:30;0.20;;;0.20;;
11263;SDS011;5689;48.798;9.070;2023-04-15T08:28:58;0.20;;;0.20;;
11263;SDS011;5689;48.798;9.070;2023-04-15T08:31:26;0.15;;;0.15;;
11263;SDS011;5689;48.798;9.070;2023-04-15T08:33:57;0.20;;;0.20;;
11263;SDS011;5689;48.798;9.070;2023-04-15T08:36:25;0.10;;;0.10;;
11263;SDS011;5689;48.798;9.070;2023-04-15T08:38:53;0.10;;;0.10;;
11263;SDS011;5689;48.798;9.070;2023-04-15T08:41:22;0.10;;;0.10;;
11263;SDS011;5689;48.798;9.070;2023-04-15T08:43:52;0.10;;;0.10;;
11263;SDS011;5689;48.798;9.070;2023-04-15T08:46:23;0.10;;;0.10;;
11263;SDS011;5689;48.798;9.070;2023-04-15T08:48:52;0.20;;;0.20;;
11263;SDS011;5689;48.798;9.070;2023-04-15T08:51:25;0.10;;;0.10;;
11263;SDS011;5689;48.798;9.070;2023-04-15T08:53:53;0.10;;;0.10;;
11263;SDS011;5689;48.798;9.070;2023-04-15T08:56:22;0.13;;;0.13;;
11263;SDS011;5689;48.798;9.070;2023-04-15T08:58:52;0.05;;;0.05;;
11263;SDS011;5689;48.798;9.070;2023-04-15T09:01:20;0.10;;;0.10;;
11263;SDS011;5689;48.798;9.070;2023-04-15T09:03:49;0.20;;;0.20;;
11263;SDS011;5689;48.798;9.070;2023-04-15T09:06:25;0.10;;;0.10;;
11263;SDS011;5689;48.798;9.070;2023-04-15T09:08:53;0.10;;;0.10;;
11263;SDS011;5689;48.798;9.070;2023-04-15T09:11:22;0.10;;;0.10;;
11263;SDS011;5689;48.798;9.070;2023-04-15T09:13:51;0.10;;;0.10;;
11263;SDS011;5689;48.798;9.070;2023-04-15T09:16:19;0.20;;;0.20;;
11263;SDS011;5689;48.798;9.070;2023-04-15T09:18:47;0.20;;;0.20;;
11263;SDS011;5689;48.798;9.070;2023-04-15T09:21:15;0.20;;;0.20;;
11263;SDS011;5689;48.798;9.070;2023-04-15T09:23:56;0.20;;;0.20;;
11263;SDS011;5689;48.798;9.070;2023-04-15T09:26:31;0.20;;;0.20;;
11263;SDS011;5689;48.798;9.070;2023-04-15T09:29:04;0.20;;;0.20;;
11263;SDS011;5689;48.798;9.070;2023-04-15T09:31:33;0.10;;;0.10;;
11263;SDS011;5689;48.798;9.070;2023-04-15T09:34:02;0.20;;;0.20;;
11263;SDS011;5689;48.798;9.070;2023-04-15T09:36:34;0.10;;;0.10;;
11263;SDS011;5689;48.798;9.070;2023-04-15T09:39:09;0.20;;;0.20;;
11263;SDS011;5689;48.798;9.070;2023-04-15T09:41:37;0.20;;;0.20;;
11263;SDS011;5689;48.798;9.070;2023-04-15T09:44:05;0.10;;;0.10;;
11263;SDS011;5689;48.798;9.070;2023-04-15T09:46:40;0.20;;;0.20;;
11263;SDS011;5689;48.798;9.070;2023-04-15T09:49:09;0.20;;;0.20;;
11263;SDS011;5689;48.798;9.070;2023-04-15T09:51:38;0.20;;;0.20;;
11263;SDS011;5689;48.798;9.070;2023-04-15T09:54:06;0.10;;;0.10;;
11263;SDS011;5689;48.798;9.070;2023-04-15T09:56:36;0.20;;;0.20;;
11263;SDS011;5689;48.798;9.070;2023-04-15T09:59:07;0.10;;;0.10;;
11263;SDS011;5689;48.798;9.070;2023-04-15T10:01:35;0.10;;;0.10;;
11263;SDS011;5689;48.798;9.070;2023-04-15T10:04:04;0.10;;;0.10;;
11263;SDS011;5689;48.798;9.070;2023-04-15T10:06:32;0.10;;;0.10;;
11263;SDS011;5689;48.798;9.070;2023-04-15T10:09:02;0.10;;;0.10;;
11263;SDS011;5689;48.798;9.070;2023-04-15T10:11:31;0.20;;;0.20;;
11263;SDS011;5689;48.798;9.070;2023-04-15T10:14:01;0.10;;;0.10;;
11263;SDS011;5689;48.798;9.070;2023-04-15T10:16:30;0.10;;;0.10;;
11263;SDS011;5689;48.798;9.070;2023-04-15T10:19:06;0.05;;;0.05;;
11263;SDS011;5689;48.798;9.070;2023-04-15T10:21:36;0.00;;;0.00;;
11263;SDS011;5689;48.798;9.070;2023-04-15T10:24:04;0.05;;;0.05;;
11263;SDS011;5689;48.798;9.070;2023-04-15T10:26:35;0.08;;;0.08;;
11263;SDS011;5689;48.798;9.070;2023-04-15T10:29:03;0.10;;;0.10;;
11263;SDS011;5689;48.798;9.070;2023-04-15T10:31:32;0.10;;;0.10;;
11263;SDS011;5689;48.798;9.070;2023-04-15T10:34:01;0.10;;;0.10;;
11263;SDS011;5689;48.798;9.070;2023-04-15T10:36:31;0.10;;;0.10;;
11263;SDS011;5689;48.798;9.070;2023-04-15T10:38:59;0.10;;;0.10;;
11263;SDS011;5689;48.798;9.070;2023-04-15T10:41:28;0.10;;;0.10;;
11263;SDS011;5689;48.798;9.070;2023-04-15T10:44:00;0.10;;;0.10;;
11263;SDS011;5689;48.798;9.070;2023-04-15T10:46:34;0.00;;;0.00;;
11263;SDS011;5689;48.798;9.070;2023-04-15T10:49:07;0.10;;;0.10;;
11263;SDS011;5689;48.798;9.070;2023-04-15T10:51:36;0.10;;;0.10;;
11263;SDS011;5689;48.798;9.070;2023-04-15T10:54:08;0.10;;;0.10;;
11263;SDS011;5689;48.798;9.070;2023-04-15T10:56:40;0.00;;;0.00;;
11263;SDS011;5689;48.798;9.070;2023-04-15T10:59:14;0.00;;;0.00;;
11263;SDS011;5689;48.798;9.070;2023-04-15T11:01:49;0.00;;;0.00;;
11263;SDS011;5689;48.798;9.070;2023-04-15T11:07:37;0.10;;;0.10;;
11263;SDS011;5689;48.798;9.070;2023-04-15T11:13:21;0.20;;;0.20;;
11263;SDS011;5689;48.798;9.070;2023-04-15T11:15:57;0.20;;;0.20;;
11263;SDS011;5689;48.798;9.070;2023-04-15T11:18:28;0.20;;;0.20;;
11263;SDS011;5689;48.798;9.070;2023-04-15T11:21:03;0.15;;;0.15;;
11263;SDS011;5689;48.798;9.070;2023-04-15T11:23:33;0.10;;;0.10;;
11263;SDS011;5689;48.798;9.070;2023-04-15T11:26:03;0.10;;;0.10;;
11263;SDS011;5689;48.798;9.070;2023-04-15T11:28:35;0.10;;;0.10;;
11263;SDS011;5689;48.798;9.070;2023-04-15T11:31:09;0.10;;;0.10;;
11263;SDS011;5689;48.798;9.070;2023-04-15T11:33:43;0.20;;;0.20;;
11263;SDS011;5689;48.798;9.070;2023-04-15T11:36:13;0.30;;;0.30;;
11263;SDS011;5689;48.798;9.070;2023-04-15T11:38:57;0.30;;;0.30;;
11263;SDS011;5689;48.798;9.070;2023-04-15T11:41:25;0.20;;;0.20;;
11263;SDS011;5689;48.798;9.070;2023-04-15T11:43:54;0.20;;;0.20;;
11263;SDS011;5689;48.798;9.070;2023-04-15T11:46:28;0.20;;;0.20;;
11263;SDS011;5689;48.798;9.070;2023-04-15T11:48:57;0.10;;;0.10;;
11263;SDS011;5689;48.798;9.070;2023-04-15T11:51:26;0.22;;;0.22;;
11263;SDS011;5689;48.798;9.070;2023-04-15T11:53:59;0.10;;;0.10;;
11263;SDS011;5689;48.798;9.070;2023-04-15T11:56:27;0.20;;;0.20;;
11263;SDS011;5689;48.798;9.070;2023-04-15T11:58:58;0.20;;;0.20;;
11263;SDS011;5689;48.798;9.070;2023-04-15T12:01:31;0.20;;;0.20;;
11263;SDS011;5689;48.798;9.070;2023-04-15T12:04:00;0.17;;;0.17;;
11263;SDS011;5689;48.798;9.070;2023-04-15T12:06:30;0.17;;;0.17;;
11263;SDS011;5689;48.798;9.070;2023-04-15T12:09:02;0.20;;;0.20;;
11263;SDS011;5689;48.798;9.070;2023-04-15T12:11:38;0.20;;;0.20;;
11263;SDS011;5689;48.798;9.070;2023-04-15T12:14:20;0.10;;;0.10;;
11263;SDS011;5689;48.798;9.070;2023-04-15T12:16:56;0.10;;;0.10;;
11263;SDS011;5689;48.798;9.070;2023-04-15T12:19:26;0.20;;;0.20;;
11263;SDS011;5689;48.798;9.070;2023-04-15T12:21:56;0.20;;;0.20;;
11263;SDS011;5689;48.798;9.070;2023-04-15T12:24:26;0.20;;;0.20;;
11263;SDS011;5689;48.798;9.070;2023-04-15T12:26:56;0.20;;;0.20;;
11263;SDS011;5689;48.798;9.070;2023-04-15T12:29:29;0.10;;;0.10;;
11263;SDS011;5689;48.798;9.070;2023-04-15T12:32:03;0.10;;;0.10;;
11263;SDS011;5689;48.798;9.070;2023-04-15T12:34:34;0.13;;;0.13;;
11263;SDS011;5689;48.798;9.070;2023-04-15T12:37:13;0.10;;;0.10;;
11263;SDS011;5689;48.798;9.070;2023-04-15T12:39:42;0.10;;;0.10;;
11263;SDS011;5689;48.798;9.070;2023-04-15T12:42:11;0.10;;;0.10;;
11263;SDS011;5689;48.798;9.070;2023-04-15T12:44:41;0.10;;;0.10;;
11263;SDS011;5689;48.798;9.070;2023-04-15T12:47:11;0.15;;;0.15;;
11263;SDS011;5689;48.798;9.070;2023-04-15T12:49:39;0.15;;;0.15;;
11263;SDS011;5689;48.798;9.070;2023-04-15T12:52:07;0.10;;;0.10;;
11263;SDS011;5689;48.798;9.070;2023-04-15T12:54:36;0.10;;;0.10;;
11263;SDS011;5689;48.798;9.070;2023-04-15T12:57:05;0.10;;;0.10;;
11263;SDS011;5689;48.798;9.070;2023-04-15T12:59:34;0.10;;;0.10;;
11263;SDS011;5689;48.798;9.070;2023-04-15T13:02:02;0.17;;;0.17;;
11263;SDS011;5689;48.798;9.070;2023-04-15T13:04:38;0.20;;;0.20;;
11263;SDS011;5689;48.798;9.070;2023-04-15T13:07:06;0.10;;;0.10;;
11263;SDS011;5689;48.798;9.070;2023-04-15T13:09:34;0.10;;;0.10;;
11263;SDS011;5689;48.798;9.070;2023-04-15T13:12:03;0.10;;;0.10;;
11263;SDS011;5689;48.798;9.070;2023-04-15T13:14:31;0.10;;;0.10;;
11263;SDS011;5689;48.798;9.070;2023-04-15T13:16:59;0.10;;;0.10;;
11263;SDS011;5689;48.798;9.070;2023-04-15T13:19:28;0.10;;;0.10;;
11263;SDS011;5689;48.798;9.070;2023-04-15T13:21:57;0.10;;;0.10;;
11263;SDS011;5689;48.798;9.070;2023-04-15T13:24:25;0.10;;;0.10;;
11263;SDS011;5689;48.798;9.070;2023-04-15T13:26:53;0.10;;;0.10;;
11263;SDS011;5689;48.798;9.070;2023-04-15T13:29:26;0.20;;;0.20;;
11263;SDS011;5689;48.798;9.070;2023-04-15T13:32:02;0.20;;;0.20;;
11263;SDS011;5689;48.798;9.070;2023-04-15T13:34:30;0.13;;;0.13;;
11263;SDS011;5689;48.798;9.070;2023-04-15T13:37:06;0.20;;;0.20;;
11263;SDS011;5689;48.798;9.070;2023-04-15T13:39:34;0.20;;;0.20;;
11263;SDS011;5689;48.798;9.070;2023-04-15T13:42:02;0.20;;;0.20;;
11263;SDS011;5689;48.798;9.070;2023-04-15T13:44:30;0.20;;;0.20;;
11263;SDS011;5689;48.798;9.070;2023-04-15T13:46:58;0.20;;;0.20;;
11263;SDS011;5689;48.798;9.070;2023-04-15T13:49:27;0.20;;;0.20;;
11263;SDS011;5689;48.798;9.070;2023-04-15T13:51:55;0.20;;;0.20;;
11263;SDS011;5689;48.798;9.070;2023-04-15T13:54:25;0.20;;;0.20;;
11263;SDS011;5689;48.798;9.070;2023-04-15T13:57:01;0.10;;;0.10;;
11263;SDS011;5689;48.798;9.070;2023-04-15T13:59:29;0.10;;;0.10;;
11263;SDS011;5689;48.798;9.070;2023-04-15T14:01:57;0.10;;;0.10;;
11263;SDS011;5689;48.798;9.070;2023-04-15T14:04:25;0.20;;;0.20;;
11263;SDS011;5689;48.798;9.070;2023-04-15T14:06:53;0.10;;;0.10;;
11263;SDS011;5689;48.798;9.070;2023-04-15T14:09:22;0.20;;;0.20;;
11263;SDS011;5689;48.798;9.070;2023-04-15T14:11:54;0.20;;;0.20;;
11263;SDS011;5689;48.798;9.070;2023-04-15T14:14:23;0.20;;;0.20;;
11263;SDS011;5689;48.798;9.070;2023-04-15T14:16:51;0.30;;;0.30;;
11263;SDS011;5689;48.798;9.070;2023-04-15T14:19:19;0.30;;;0.30;;
11263;SDS011;5689;48.798;9.070;2023-04-15T14:21:47;0.30;;;0.30;;
11263;SDS011;5689;48.798;9.070;2023-04-15T14:24:18;0.20;;;0.20;;
11263;SDS011;5689;48.798;9.070;2023-04-15T14:26:46;0.22;;;0.22;;
11263;SDS011;5689;48.798;9.070;2023-04-15T14:29:16;0.30;;;0.30;;
11263;SDS011;5689;48.798;9.070;2023-04-15T14:31:44;0.20;;;0.20;;
11263;SDS011;5689;48.798;9.070;2023-04-15T14:34:14;0.20;;;0.20;;
11263;SDS011;5689;48.798;9.070;2023-04-15T14:36:42;0.27;;;0.27;;
11263;SDS011;5689;48.798;9.070;2023-04-15T14:39:10;0.20;;;0.20;;
11263;SDS011;5689;48.798;9.070;2023-04-15T14:41:40;0.20;;;0.20;;
11263;SDS011;5689;48.798;9.070;2023-04-15T14:44:09;0.20;;;0.20;;
11263;SDS011;5689;48.798;9.070;2023-04-15T14:46:39;0.20;;;0.20;;
11263;SDS011;5689;48.798;9.070;2023-04-15T14:49:07;0.20;;;0.20;;
11263;SDS011;5689;48.798;9.070;2023-04-15T14:51:35;0.20;;;0.20;;
11263;SDS011;5689;48.798;9.070;2023-04-15T14:54:04;0.30;;;0.30;;
11263;SDS011;5689;48.798;9.070;2023-04-15T14:56:32;0.27;;;0.27;;
11263;SDS011;5689;48.798;9.070;2023-04-15T14:59:01;0.30;;;0.30;;
11263;SDS011;5689;48.798;9.070;2023-04-15T15:01:29;0.20;;;0.20;;
11263;SDS011;5689;48.798;9.070;2023-04-15T15:03:59;0.30;;;0.30;;
11263;SDS011;5689;48.798;9.070;2023-04-15T15:06:27;0.20;;;0.20;;
11263;SDS011;5689;48.798;9.070;2023-04-15T15:08:56;0.20;;;0.20;;
11263;SDS011;5689;48.798;9.070;2023-04-15T15:11:24;0.20;;;0.20;;
11263;SDS011;5689;48.798;9.070;2023-04-15T15:13:52;0.40;;;0.40;;
11263;SDS011;5689;48.798;9.070;2023-04-15T15:16:22;0.40;;;0.40;;
11263;SDS011;5689;48.798;9.070;2023-04-15T15:18:50;0.40;;;0.40;;
11263;SDS011;5689;48.798;9.070;2023-04-15T15:21:20;0.40;;;0.40;;